Time;durP1;ratioP1;P1;durP2;ratioP2;P2;SDS_P1;SDS_P2;PMS_P1;PMS_P2;Temp;Humidity;BMP_temperature;BMP_pressure;BME280_temperature;BME280_humidity;BME280_pressure;Samples;Min_cycle;Max_cycle;Signal;HPM_P1;HPM_P2
2023/12/20 00:01:53;;;;;;;1.30;1.00;;;;;;;5.06;80.40;95817.59;5135454;27;20477;-57
2023/12/20 00:04:29;;;;;;;2.90;1.03;;;;;;;5.12;80.87;95815.91;5135464;27;20462;-56
2023/12/20 00:06:59;;;;;;;1.80;1.67;;;;;;;5.16;81.50;95814.44;5135614;27;20859;-56
2023/12/20 00:09:28;;;;;;;4.83;1.63;;;;;;;5.07;79.58;95813.13;5135311;27;20442;-56
2023/12/20 00:11:57;;;;;;;0.90;0.90;;;;;;;4.74;82.42;95812.75;5135509;27;20442;-57
2023/12/20 00:14:25;;;;;;;0.53;0.53;;;;;;;4.88;81.62;95809.75;5135114;27;20478;-56
2023/12/20 00:16:54;;;;;;;1.73;1.63;;;;;;;4.83;80.51;95796.47;5135205;27;20499;-56
2023/12/20 00:19:22;;;;;;;0.70;0.70;;;;;;;5.01;82.20;95809.56;5135467;27;20830;-57
2023/12/20 00:21:52;;;;;;;1.00;1.00;;;;;;;4.97;82.51;95790.03;5134827;27;20476;-57
2023/12/20 00:24:21;;;;;;;0.87;0.87;;;;;;;5.00;81.84;95802.72;5135409;27;20910;-57
2023/12/20 00:26:50;;;;;;;3.70;1.57;;;;;;;4.97;81.09;95797.09;5134571;27;20488;-57
2023/12/20 00:29:18;;;;;;;1.90;1.80;;;;;;;5.02;83.29;95792.81;5135221;27;20513;-57
2023/12/20 00:31:47;;;;;;;1.07;0.97;;;;;;;5.06;82.80;95793.94;5134647;27;20474;-57
2023/12/20 00:34:15;;;;;;;1.73;1.63;;;;;;;5.01;82.75;95791.19;5134866;27;20949;-57
2023/12/20 00:36:44;;;;;;;1.73;1.63;;;;;;;5.01;81.93;95785.13;5134690;27;20442;-57
2023/12/20 00:39:14;;;;;;;0.50;0.50;;;;;;;4.99;81.84;95800.31;5134915;27;20438;-57
2023/12/20 00:41:43;;;;;;;1.70;1.60;;;;;;;4.87;85.02;95787.13;5134603;27;20488;-57
2023/12/20 00:44:11;;;;;;;1.00;0.97;;;;;;;4.84;80.80;95781.53;5134595;27;20434;-57
2023/12/20 00:46:40;;;;;;;2.20;1.10;;;;;;;4.82;82.16;95780.94;5133883;27;20439;-57
2023/12/20 00:49:09;;;;;;;1.43;1.27;;;;;;;4.87;82.54;95763.50;5134767;27;20980;-57
2023/12/20 00:51:38;;;;;;;3.10;0.63;;;;;;;4.95;81.72;95780.78;5134429;27;20466;-57
2023/12/20 00:54:06;;;;;;;1.73;1.50;;;;;;;4.99;80.90;95774.84;5134953;27;20513;-57
2023/12/20 00:56:36;;;;;;;1.90;1.80;;;;;;;4.85;80.75;95752.44;5133700;27;20455;-56
2023/12/20 00:59:05;;;;;;;1.43;0.73;;;;;;;5.06;80.38;95780.81;5135025;27;20438;-57
2023/12/20 01:01:34;;;;;;;0.93;0.93;;;;;;;4.96;80.14;95782.38;5106836;27;20435;-56
2023/12/20 01:04:02;;;;;;;1.07;0.70;;;;;;;4.76;79.27;95773.94;5134174;27;20485;-56
2023/12/20 01:06:31;;;;;;;1.13;1.13;;;;;;;4.72;79.56;95772.78;5133357;27;20483;-56
2023/12/20 01:09:00;;;;;;;1.10;0.60;;;;;;;4.67;80.21;95765.59;5134110;27;20435;-57
2023/12/20 01:11:28;;;;;;;0.80;0.70;;;;;;;4.47;80.16;95760.59;5134704;27;20473;-58
2023/12/20 01:13:58;;;;;;;0.50;0.40;;;;;;;4.45;80.29;95767.84;5134007;27;20473;-57
2023/12/20 01:16:27;;;;;;;0.83;0.60;;;;;;;4.25;80.99;95743.66;5134467;27;20462;-58
2023/12/20 01:18:55;;;;;;;0.83;0.83;;;;;;;4.41;80.50;95758.03;5133255;27;20430;-57
2023/12/20 01:21:24;;;;;;;5.07;2.00;;;;;;;4.42;79.46;95762.25;5134241;27;20503;-57
2023/12/20 01:23:53;;;;;;;1.30;1.20;;;;;;;4.31;79.50;95753.28;5133807;27;20554;-57
2023/12/20 01:26:22;;;;;;;0.63;0.63;;;;;;;4.00;81.28;95758.66;5134219;27;20426;-57
2023/12/20 01:28:50;;;;;;;1.23;1.13;;;;;;;4.08;80.74;95761.00;5133138;27;20495;-57
2023/12/20 01:31:20;;;;;;;2.93;1.37;;;;;;;4.12;80.13;95753.53;5134011;27;20438;-57
2023/12/20 01:33:49;;;;;;;7.40;2.50;;;;;;;4.20;79.37;95748.78;5133704;27;20439;-57
2023/12/20 01:36:18;;;;;;;1.63;1.53;;;;;;;4.06;79.50;95746.50;5134014;27;20447;-57
2023/12/20 01:38:46;;;;;;;3.00;0.97;;;;;;;3.71;79.23;95665.81;5133833;27;20438;-57
2023/12/20 01:41:15;;;;;;;4.03;2.30;;;;;;;4.22;79.10;95735.44;5133383;27;20460;-57
2023/12/20 01:43:43;;;;;;;1.00;1.00;;;;;;;4.13;79.38;95718.38;5134043;27;20485;-57
2023/12/20 01:46:21;;;;;;;2.00;1.40;;;;;;;4.28;81.50;95714.38;5132610;27;20438;-57
2023/12/20 01:48:50;;;;;;;3.30;1.60;;;;;;;4.31;81.12;95729.69;5133454;27;20449;-57
2023/12/20 01:51:19;;;;;;;0.70;0.70;;;;;;;4.32;81.16;95712.13;5133113;27;21969;-57
2023/12/20 01:53:50;;;;;;;2.00;0.60;;;;;;;4.11;79.77;95710.75;5133862;27;20438;-57
2023/12/20 01:56:18;;;;;;;5.30;1.00;;;;;;;4.20;81.19;95706.78;5133074;27;20431;-57
2023/12/20 01:58:48;;;;;;;0.73;0.60;;;;;;;4.27;80.43;95711.97;5133242;27;20529;-57
2023/12/20 02:01:18;;;;;;;1.03;0.90;;;;;;;3.56;80.60;95586.75;5132765;27;20468;-57
2023/12/20 02:03:49;;;;;;;0.63;0.60;;;;;;;4.27;81.76;95701.47;5133404;27;20828;-57
2023/12/20 02:06:19;;;;;;;0.97;0.83;;;;;;;4.29;82.25;95689.75;5133220;27;20435;-57
2023/12/20 02:08:48;;;;;;;0.50;0.50;;;;;;;4.37;81.70;95688.66;5132983;27;20446;-57
2023/12/20 02:11:16;;;;;;;2.20;1.50;;;;;;;4.33;80.85;95687.47;5106068;27;20474;-57
2023/12/20 02:13:45;;;;;;;1.03;0.60;;;;;;;4.28;82.77;95701.25;5132964;27;20443;-57
2023/12/20 02:16:14;;;;;;;1.60;0.93;;;;;;;3.82;82.39;95666.88;5133088;27;20435;-57
2023/12/20 02:18:44;;;;;;;1.43;1.33;;;;;;;4.09;82.56;95693.63;5132730;27;20865;-58
2023/12/20 02:21:14;;;;;;;0.70;0.60;;;;;;;4.05;82.61;95690.63;5132974;27;20942;-57
2023/12/20 02:23:44;;;;;;;0.40;0.30;;;;;;;4.07;80.88;95685.19;5132340;27;20478;-57
2023/12/20 02:26:13;;;;;;;4.20;0.90;;;;;;;3.43;83.07;95686.44;5122761;27;20439;-58
2023/12/20 02:28:42;;;;;;;6.80;1.47;;;;;;;2.98;85.82;95693.66;5130005;27;20560;-57
2023/12/20 02:31:11;;;;;;;2.17;1.37;;;;;;;2.52;88.24;95680.88;5132977;27;20538;-58
2023/12/20 02:33:42;;;;;;;1.40;1.30;;;;;;;2.72;88.58;95685.19;5132537;27;20515;-58
2023/12/20 02:36:10;;;;;;;1.73;1.63;;;;;;;2.90;89.40;95677.41;5132644;27;20446;-57
2023/12/20 02:38:39;;;;;;;2.10;0.70;;;;;;;3.40;87.65;95689.47;5131661;27;20438;-58
2023/12/20 02:41:09;;;;;;;7.40;1.40;;;;;;;3.45;85.66;95681.78;5132669;27;20438;-58
2023/12/20 02:43:37;;;;;;;1.03;0.93;;;;;;;3.57;83.84;95689.72;5131987;27;20478;-57
2023/12/20 02:46:06;;;;;;;0.60;0.60;;;;;;;3.54;83.49;95680.47;5132548;27;20517;-57
2023/12/20 02:48:34;;;;;;;0.90;0.80;;;;;;;3.36;84.68;95667.38;5105508;28;20438;-57
2023/12/20 02:51:03;;;;;;;5.30;2.23;;;;;;;3.38;83.75;95675.00;5131424;28;20473;-58
2023/12/20 02:53:32;;;;;;;0.50;0.50;;;;;;;3.51;83.32;95683.53;5132147;27;20967;-58
2023/12/20 02:56:01;;;;;;;0.87;0.67;;;;;;;3.69;82.38;95675.69;5132438;27;20847;-58
2023/12/20 02:58:31;;;;;;;4.43;1.87;;;;;;;3.59;81.78;95678.00;5132601;28;20526;-58
2023/12/20 03:00:59;;;;;;;1.90;1.80;;;;;;;3.59;81.80;95678.00;5131723;28;21024;-58
2023/12/20 03:03:28;;;;;;;1.63;1.07;;;;;;;3.58;82.26;95670.38;5132476;28;20867;-58
2023/12/20 03:05:56;;;;;;;0.70;0.50;;;;;;;3.34;82.91;95661.50;5131667;27;20470;-58
2023/12/20 03:08:25;;;;;;;0.97;0.83;;;;;;;3.38;83.69;95659.28;5132088;27;20534;-58
2023/12/20 03:10:57;;;;;;;0.77;0.50;;;;;;;3.50;85.06;95657.53;5131542;28;20435;-58
2023/12/20 03:13:26;;;;;;;1.23;0.80;;;;;;;3.53;83.04;95655.31;5132549;27;20445;-57
2023/12/20 03:15:56;;;;;;;1.50;1.40;;;;;;;3.82;84.63;95667.69;5131992;28;20441;-58
2023/12/20 03:18:24;;;;;;;0.47;0.47;;;;;;;3.61;81.15;95678.63;5132187;28;20485;-58
2023/12/20 03:20:53;;;;;;;2.20;1.13;;;;;;;3.60;82.94;95663.91;5131896;28;20470;-58
2023/12/20 03:23:21;;;;;;;0.60;0.53;;;;;;;3.80;93.28;95661.88;5132115;27;20442;-58
2023/12/20 03:25:50;;;;;;;0.73;0.73;;;;;;;3.51;84.52;95657.34;5132184;27;20430;-58
2023/12/20 03:28:19;;;;;;;2.60;1.27;;;;;;;3.25;84.25;95659.38;5118640;27;20442;-58
2023/12/20 03:30:47;;;;;;;2.93;1.53;;;;;;;3.11;84.35;95656.09;5108048;27;20458;-58
2023/12/20 03:33:17;;;;;;;2.10;2.03;;;;;;;3.32;82.98;95654.88;5135709;27;20441;-58
2023/12/20 03:35:45;;;;;;;2.60;1.23;;;;;;;3.43;84.08;95651.56;5136483;27;20438;-58
2023/12/20 03:38:13;;;;;;;2.20;1.03;;;;;;;3.32;82.38;95645.22;5135482;27;20904;-58
2023/12/20 03:40:42;;;;;;;1.90;1.80;;;;;;;2.81;84.58;95652.50;5135707;27;20460;-57
2023/12/20 03:43:11;;;;;;;1.07;0.77;;;;;;;2.77;85.04;95651.31;5135831;27;20436;-57
2023/12/20 03:45:39;;;;;;;2.10;1.90;;;;;;;2.89;85.13;95650.41;5135388;27;20511;-57
2023/12/20 03:48:08;;;;;;;3.20;2.33;;;;;;;2.88;83.74;95645.41;5135097;27;20524;-57
2023/12/20 03:50:38;;;;;;;12.73;2.20;;;;;;;2.90;83.77;95631.09;5135689;27;20610;-57
2023/12/20 03:53:07;;;;;;;1.53;0.77;;;;;;;3.15;82.05;95641.56;5134986;27;20435;-57
2023/12/20 03:55:36;;;;;;;3.13;0.60;;;;;;;3.27;81.00;95634.59;5135564;27;20984;-56
2023/12/20 03:58:05;;;;;;;1.10;0.90;;;;;;;3.24;81.01;95637.63;5135440;27;20442;-57
2023/12/20 04:00:35;;;;;;;1.37;1.27;;;;;;;2.86;82.21;95642.22;5135429;27;20503;-56
2023/12/20 04:03:04;;;;;;;0.93;0.93;;;;;;;2.86;83.27;95636.97;5135286;27;20438;-58
2023/12/20 04:05:33;;;;;;;2.30;0.67;;;;;;;2.72;84.67;95640.69;5135620;27;20549;-58
2023/12/20 04:08:04;;;;;;;1.73;1.30;;;;;;;2.31;87.33;95638.53;5135362;27;20441;-58
2023/12/20 04:10:33;;;;;;;2.40;0.87;;;;;;;2.21;90.71;95630.34;5135022;27;20502;-58
2023/12/20 04:13:01;;;;;;;2.00;0.93;;;;;;;2.21;91.25;95627.72;5135589;27;20525;-58
2023/12/20 04:15:30;;;;;;;1.40;1.30;;;;;;;2.43;89.46;95632.41;5135258;27;20562;-56
2023/12/20 04:17:58;;;;;;;3.60;1.20;;;;;;;2.35;89.26;95626.66;5135147;27;20542;-57
2023/12/20 04:20:27;;;;;;;0.93;0.93;;;;;;;2.67;87.47;95620.41;5134649;27;20574;-57
2023/12/20 04:22:55;;;;;;;3.67;1.80;;;;;;;2.35;88.71;95622.19;5135119;27;20442;-58
2023/12/20 04:25:26;;;;;;;1.33;1.23;;;;;;;1.99;93.97;95615.97;5133801;27;21005;-57
2023/12/20 04:27:54;;;;;;;3.67;3.37;;;;;;;1.66;98.29;95626.56;5134820;27;20438;-58
2023/12/20 04:30:23;;;;;;;1.90;1.80;;;;;;;2.01;97.11;95620.00;5134287;27;20438;-57
2023/12/20 04:32:51;;;;;;;1.07;0.90;;;;;;;1.85;96.74;95617.84;5135382;27;20794;-58
2023/12/20 04:35:20;;;;;;;10.07;1.37;;;;;;;1.95;96.32;95605.13;5134584;27;20427;-58
2023/12/20 04:37:49;;;;;;;7.40;1.07;;;;;;;1.94;95.42;95619.22;5134856;27;20442;-58
2023/12/20 04:40:18;;;;;;;1.43;1.33;;;;;;;2.25;94.36;95619.25;5133973;27;20495;-58
2023/12/20 04:42:48;;;;;;;1.43;0.93;;;;;;;2.58;90.46;95623.50;5134629;27;20442;-58
2023/12/20 04:45:18;;;;;;;0.70;0.70;;;;;;;2.70;87.88;95611.31;5133970;27;20523;-59
2023/12/20 04:47:48;;;;;;;0.70;0.43;;;;;;;2.90;86.59;95620.63;5134130;27;20469;-59
2023/12/20 04:50:17;;;;;;;1.53;0.90;;;;;;;2.91;85.25;95601.25;5134255;27;20470;-57
2023/12/20 04:52:45;;;;;;;0.70;0.70;;;;;;;2.92;83.84;95604.69;5134516;27;20495;-58
2023/12/20 04:55:14;;;;;;;1.90;1.60;;;;;;;2.76;83.58;95613.88;5134286;27;20449;-58
2023/12/20 04:57:43;;;;;;;1.60;1.50;;;;;;;2.85;83.86;95614.41;5133961;27;20471;-58
2023/12/20 05:00:15;;;;;;;2.97;1.40;;;;;;;2.79;83.07;95617.88;5128726;27;20466;-58
2023/12/20 05:02:44;;;;;;;1.07;1.07;;;;;;;2.77;82.82;95618.09;5134800;27;20438;-57
2023/12/20 05:05:12;;;;;;;0.77;0.77;;;;;;;3.05;82.96;95612.44;5133357;27;20470;-57
2023/12/20 05:07:41;;;;;;;2.00;1.90;;;;;;;2.82;84.01;95601.75;5133958;27;20624;-57
2023/12/20 05:10:10;;;;;;;1.70;0.90;;;;;;;2.99;83.04;95614.09;5134088;27;20522;-56
2023/12/20 05:12:39;;;;;;;1.03;1.03;;;;;;;3.08;82.79;95623.28;5133833;27;21034;-56
2023/12/20 05:15:08;;;;;;;0.60;0.60;;;;;;;2.95;82.56;95612.94;5107722;27;20507;-58
2023/12/20 05:17:38;;;;;;;1.33;1.23;;;;;;;3.14;83.60;95609.31;5133682;27;20435;-57
2023/12/20 05:20:09;;;;;;;1.13;0.73;;;;;;;3.11;81.47;95599.28;5134082;27;20435;-57
2023/12/20 05:22:37;;;;;;;1.13;1.03;;;;;;;3.22;82.29;95598.56;5133732;27;20546;-57
2023/12/20 05:25:07;;;;;;;1.57;1.47;;;;;;;2.62;82.30;95593.25;5134145;27;20522;-58
2023/12/20 05:27:36;;;;;;;4.17;1.77;;;;;;;2.18;86.74;95592.34;5134047;27;20470;-57
2023/12/20 05:30:05;;;;;;;4.90;1.70;;;;;;;1.75;88.39;95533.88;5133633;27;20447;-58
2023/12/20 05:32:33;;;;;;;2.10;1.57;;;;;;;2.41;88.94;95584.75;5133824;27;20488;-57
2023/12/20 05:35:04;;;;;;;2.80;2.67;;;;;;;2.79;86.85;95578.63;5133358;27;20435;-58
2023/12/20 05:37:33;;;;;;;2.87;2.67;;;;;;;2.78;85.39;95583.06;5132955;27;20426;-58
2023/12/20 05:40:01;;;;;;;3.63;3.33;;;;;;;2.49;84.52;95586.31;5133294;27;20487;-58
2023/12/20 05:42:30;;;;;;;8.43;1.27;;;;;;;2.45;83.99;95577.28;5133165;27;20442;-57
2023/12/20 05:44:58;;;;;;;2.67;2.50;;;;;;;2.40;84.81;95577.13;5133224;27;20553;-59
2023/12/20 05:47:27;;;;;;;8.13;2.40;;;;;;;2.15;85.84;95582.28;5132727;27;20445;-58
2023/12/20 05:49:56;;;;;;;6.10;2.60;;;;;;;1.79;87.92;95584.72;5132848;27;20646;-58
2023/12/20 05:52:26;;;;;;;3.87;3.57;;;;;;;1.69;91.04;95573.91;5132436;27;20473;-58
2023/12/20 05:54:55;;;;;;;17.77;6.53;;;;;;;1.35;92.94;95587.28;5132803;27;20939;-58
2023/12/20 05:57:24;;;;;;;4.80;3.70;;;;;;;1.23;99.66;95585.31;5132721;27;20491;-57
2023/12/20 05:59:52;;;;;;;2.87;2.73;;;;;;;1.27;100.00;95591.72;5105497;27;20549;-57
2023/12/20 06:02:21;;;;;;;3.43;3.10;;;;;;;1.50;98.20;95586.03;5132622;27;20435;-58
2023/12/20 06:04:49;;;;;;;4.40;4.10;;;;;;;1.59;95.87;95550.03;5133145;27;20434;-58
2023/12/20 06:07:18;;;;;;;5.30;1.67;;;;;;;1.67;95.33;95573.31;5132818;27;20439;-58
2023/12/20 06:09:49;;;;;;;5.73;3.43;;;;;;;2.07;93.46;95585.19;5133497;27;20434;-58
2023/12/20 06:12:17;;;;;;;3.40;2.20;;;;;;;2.56;89.21;95582.63;5132483;27;20475;-58
2023/12/20 06:14:46;;;;;;;1.53;1.43;;;;;;;3.03;86.24;95583.06;5132650;27;20450;-58
2023/12/20 06:17:15;;;;;;;2.37;2.10;;;;;;;2.86;84.90;95582.78;5132944;27;20453;-58
2023/12/20 06:19:44;;;;;;;2.13;1.30;;;;;;;2.91;85.14;95584.78;5132902;27;20452;-58
2023/12/20 06:22:13;;;;;;;9.70;2.20;;;;;;;2.85;84.95;95575.97;5132580;27;20495;-58
2023/12/20 06:24:42;;;;;;;2.53;2.43;;;;;;;2.83;84.61;95588.47;5132898;27;20517;-57
2023/12/20 06:27:12;;;;;;;1.60;1.50;;;;;;;2.88;84.23;95586.00;5132892;27;20818;-59
2023/12/20 06:29:42;;;;;;;2.47;2.27;;;;;;;2.84;84.22;95590.06;5132717;27;20438;-57
2023/12/20 06:32:11;;;;;;;2.20;1.93;;;;;;;3.01;83.55;95585.88;5132651;27;20438;-57
2023/12/20 06:34:39;;;;;;;3.70;1.27;;;;;;;3.12;83.66;95579.94;5132706;27;20503;-57
2023/12/20 06:37:08;;;;;;;1.93;1.73;;;;;;;3.49;82.83;95566.88;5132157;27;20438;-56
2023/12/20 06:39:37;;;;;;;0.80;0.80;;;;;;;3.91;80.64;95573.81;5132094;27;20454;-57
2023/12/20 06:42:05;;;;;;;3.53;1.87;;;;;;;3.57;82.02;95577.84;5132552;27;20438;-57
2023/12/20 06:44:36;;;;;;;0.90;0.90;;;;;;;3.53;82.71;95578.50;5132254;27;20484;-58
2023/12/20 06:47:05;;;;;;;1.40;0.83;;;;;;;4.07;80.03;95570.59;5132285;27;20538;-57
2023/12/20 06:49:33;;;;;;;3.10;1.30;;;;;;;4.11;79.61;95568.31;5132342;27;20859;-58
2023/12/20 06:52:03;;;;;;;5.07;1.50;;;;;;;4.41;78.05;95555.97;5132401;28;20470;-59
2023/12/20 06:54:33;;;;;;;8.00;2.07;;;;;;;4.13;81.33;95561.81;5132032;28;20539;-60
2023/12/20 06:57:02;;;;;;;8.43;4.50;;;;;;;4.31;80.48;95545.22;5126024;27;20434;-59
2023/12/20 06:59:31;;;;;;;3.17;2.87;;;;;;;4.75;81.02;95560.50;5132296;28;20442;-59
2023/12/20 07:02:01;;;;;;;11.90;3.07;;;;;;;5.36;81.10;95548.72;5131659;28;20444;-58
2023/12/20 07:04:30;;;;;;;4.07;3.80;;;;;;;5.44;79.79;95551.78;5134354;27;20431;-57
2023/12/20 07:07:00;;;;;;;3.00;2.10;;;;;;;5.65;79.43;95539.84;5135866;27;20906;-58
2023/12/20 07:09:28;;;;;;;4.53;2.90;;;;;;;6.12;75.68;95546.56;5136565;27;20442;-57
2023/12/20 07:11:57;;;;;;;3.50;3.30;;;;;;;6.52;73.07;95550.97;5136534;27;20538;-57
2023/12/20 07:14:26;;;;;;;3.00;2.80;;;;;;;6.66;73.42;95520.63;5135879;27;20446;-58
2023/12/20 07:16:54;;;;;;;5.70;4.20;;;;;;;7.07;71.77;95522.84;5135963;27;20476;-59
2023/12/20 07:19:24;;;;;;;4.70;4.30;;;;;;;7.42;69.38;95533.09;5136157;27;20438;-59
2023/12/20 07:21:53;;;;;;;6.23;4.87;;;;;;;7.56;68.75;95524.56;5127981;27;20522;-59
2023/12/20 07:24:22;;;;;;;3.67;3.37;;;;;;;7.84;68.54;95522.81;5135733;27;20440;-59
2023/12/20 07:26:51;;;;;;;4.30;3.00;;;;;;;8.21;66.78;95513.16;5136116;27;20474;-59
2023/12/20 07:29:20;;;;;;;3.43;3.07;;;;;;;8.23;66.74;95509.22;5135671;27;20507;-59
2023/12/20 07:31:48;;;;;;;14.70;3.67;;;;;;;8.49;65.17;95501.56;5136135;27;20438;-59
2023/12/20 07:34:17;;;;;;;12.80;4.50;;;;;;;8.67;64.95;95503.84;5135572;27;20469;-59
2023/12/20 07:36:47;;;;;;;5.07;3.47;;;;;;;9.34;63.10;95499.53;5136010;27;20517;-60
2023/12/20 07:39:16;;;;;;;19.70;6.27;;;;;;;9.61;60.99;95495.97;5135950;27;20892;-60
2023/12/20 07:41:44;;;;;;;11.17;6.47;;;;;;;9.39;60.32;95496.91;5135433;27;20462;-60
2023/12/20 07:44:15;;;;;;;10.03;6.40;;;;;;;8.61;61.28;95492.44;5135959;27;20430;-60
2023/12/20 07:46:44;;;;;;;9.43;5.50;;;;;;;8.79;61.17;95497.31;5135853;27;20993;-60
2023/12/20 07:49:12;;;;;;;8.23;7.37;;;;;;;8.66;62.15;95496.94;5135729;27;20494;-60
2023/12/20 07:51:41;;;;;;;5.17;2.87;;;;;;;9.62;59.44;95489.59;5134958;27;20457;-59
2023/12/20 07:54:11;;;;;;;5.13;3.70;;;;;;;9.93;57.44;95489.47;5135496;27;20517;-58
2023/12/20 07:56:40;;;;;;;2.93;2.73;;;;;;;9.97;57.57;95471.97;5108485;27;20442;-59
2023/12/20 07:59:09;;;;;;;4.97;3.33;;;;;;;10.37;56.64;95484.56;5135066;27;20864;-58
2023/12/20 08:01:49;;;;;;;4.33;1.90;;;;;;;10.18;56.86;95484.25;5135579;27;20441;-57
2023/12/20 08:04:18;;;;;;;1.73;1.63;;;;;;;10.27;57.02;95475.78;5135024;27;20529;-57
2023/12/20 08:06:47;;;;;;;2.07;1.83;;;;;;;10.49;56.75;95479.00;5135602;27;20462;-56
2023/12/20 08:09:17;;;;;;;5.30;2.07;;;;;;;11.04;55.47;95486.13;5133852;27;20431;-56
2023/12/20 08:11:46;;;;;;;8.03;2.70;;;;;;;10.83;54.75;95475.53;5135149;27;20453;-57
2023/12/20 08:14:15;;;;;;;6.33;3.43;;;;;;;11.06;53.67;95478.69;5135168;27;20438;-57
2023/12/20 08:16:46;;;;;;;2.20;1.93;;;;;;;10.78;53.71;95478.19;5134395;27;20453;-57
2023/12/20 08:19:15;;;;;;;7.33;2.43;;;;;;;10.33;54.08;95480.03;5133326;27;20442;-58
2023/12/20 08:21:43;;;;;;;4.20;2.10;;;;;;;10.56;54.04;95474.22;5134431;27;20522;-58
2023/12/20 08:24:12;;;;;;;4.70;2.07;;;;;;;10.47;54.98;95467.88;5120819;27;20443;-58
2023/12/20 08:26:42;;;;;;;1.50;1.40;;;;;;;10.06;55.04;95472.28;5134289;27;20462;-59
2023/12/20 08:29:10;;;;;;;1.17;1.10;;;;;;;9.29;56.56;95474.88;5134695;27;20435;-60
2023/12/20 08:31:39;;;;;;;2.47;1.60;;;;;;;9.33;56.96;95470.69;5134270;27;20966;-60
2023/12/20 08:34:08;;;;;;;1.03;1.03;;;;;;;8.39;59.17;95470.59;5134407;27;20443;-60
2023/12/20 08:36:37;;;;;;;2.97;1.10;;;;;;;8.31;59.72;95471.03;5133804;27;20526;-60
2023/12/20 08:39:07;;;;;;;0.80;0.70;;;;;;;8.19;60.28;95457.97;5133782;27;20435;-60
2023/12/20 08:41:37;;;;;;;0.50;0.50;;;;;;;8.43;59.50;95445.25;5127003;27;20435;-60
2023/12/20 08:44:07;;;;;;;5.53;2.30;;;;;;;8.05;59.95;95417.19;5134031;27;20439;-59
2023/12/20 08:46:35;;;;;;;1.70;1.03;;;;;;;8.41;59.95;95444.72;5133789;27;20492;-59
2023/12/20 08:49:04;;;;;;;1.23;1.03;;;;;;;7.81;60.55;95394.00;5134137;27;20461;-60
2023/12/20 08:51:33;;;;;;;3.27;1.33;;;;;;;8.63;59.69;95436.69;5133733;27;20835;-60
2023/12/20 08:54:03;;;;;;;2.50;1.23;;;;;;;9.29;58.66;95424.63;5134397;27;20822;-60
2023/12/20 08:56:32;;;;;;;2.60;1.07;;;;;;;9.49;58.50;95407.00;5133623;27;20431;-55
2023/12/20 08:59:00;;;;;;;2.30;2.10;;;;;;;9.85;58.42;95422.97;5134499;27;20495;-59
2023/12/20 09:01:30;;;;;;;5.33;1.63;;;;;;;10.99;56.40;95404.72;5134182;27;20448;-57
2023/12/20 09:03:59;;;;;;;2.30;2.20;;;;;;;11.32;56.24;95403.28;5133486;27;20440;-56
2023/12/20 09:06:27;;;;;;;2.37;2.23;;;;;;;11.89;54.35;95400.91;5133793;27;20517;-55
2023/12/20 09:08:56;;;;;;;3.20;3.00;;;;;;;12.38;53.19;95381.44;5133875;27;20937;-56
2023/12/20 09:11:25;;;;;;;6.30;3.23;;;;;;;12.53;52.68;95381.31;5133266;27;20487;-58
2023/12/20 09:13:53;;;;;;;2.60;2.40;;;;;;;13.12;50.82;95362.41;5130166;27;20434;-59
2023/12/20 09:16:22;;;;;;;2.23;2.03;;;;;;;13.74;48.91;95369.31;5133532;27;20434;-59
2023/12/20 09:18:52;;;;;;;9.67;2.10;;;;;;;14.55;47.63;95361.72;5134116;27;20754;-59
2023/12/20 09:21:21;;;;;;;1.37;1.23;;;;;;;14.42;46.09;95353.69;5133881;27;20805;-60
2023/12/20 09:23:50;;;;;;;2.57;2.47;;;;;;;14.70;46.80;95339.31;5133229;27;20469;-62
2023/12/20 09:26:18;;;;;;;2.50;2.37;;;;;;;15.91;44.33;95331.56;5134135;27;20443;-65
2023/12/20 09:28:47;;;;;;;5.77;2.70;;;;;;;15.58;43.41;95328.28;5131455;27;20474;-65
2023/12/20 09:31:16;;;;;;;2.57;2.47;;;;;;;15.88;42.89;95306.25;5118087;27;20438;-65
2023/12/20 09:33:45;;;;;;;3.33;2.73;;;;;;;15.37;43.28;95326.28;5133892;27;20434;-65
2023/12/20 09:36:15;;;;;;;1.33;1.23;;;;;;;15.56;43.66;95319.75;5129839;27;20522;-64
2023/12/20 09:38:44;;;;;;;3.20;2.13;;;;;;;15.85;43.05;95311.38;5134083;27;20462;-63
2023/12/20 09:41:14;;;;;;;2.33;2.17;;;;;;;15.87;43.19;95298.50;5133082;27;20438;-62
2023/12/20 09:43:43;;;;;;;1.43;1.33;;;;;;;15.99;43.62;95295.31;5107077;27;20441;-62
2023/12/20 09:46:17;;;;;;;2.03;1.87;;;;;;;16.28;43.07;95296.44;5133109;27;20950;-62
2023/12/20 09:48:46;;;;;;;5.10;1.80;;;;;;;16.31;42.37;95282.47;5132969;27;20900;-61
2023/12/20 09:51:16;;;;;;;2.07;1.87;;;;;;;15.98;42.85;95283.03;5132942;27;20455;-61
2023/12/20 09:53:46;;;;;;;2.67;2.10;;;;;;;16.52;42.48;95269.38;5133193;27;20537;-60
2023/12/20 09:56:16;;;;;;;5.80;2.20;;;;;;;16.99;41.57;95259.81;5132598;27;20509;-60
2023/12/20 09:58:44;;;;;;;4.03;3.03;;;;;;;16.60;42.16;95257.94;5133124;27;20458;-60
2023/12/20 10:01:13;;;;;;;1.50;1.40;;;;;;;16.91;42.41;95248.00;5133098;27;20457;-61
2023/12/20 10:03:42;;;;;;;2.33;1.53;;;;;;;16.44;42.20;95243.38;5133418;27;20466;-60
2023/12/20 10:06:11;;;;;;;1.43;0.90;;;;;;;15.37;44.35;95243.50;5132713;27;20448;-59
2023/12/20 10:08:42;;;;;;;1.20;1.03;;;;;;;15.23;43.85;95235.50;5133117;27;20470;-59
2023/12/20 10:11:10;;;;;;;1.00;1.00;;;;;;;16.02;43.86;95201.13;5133159;27;20434;-60
2023/12/20 10:13:41;;;;;;;1.93;1.10;;;;;;;16.99;41.68;95193.69;5132843;27;20434;-60
2023/12/20 10:16:09;;;;;;;6.00;1.33;;;;;;;16.97;41.31;95198.56;5107543;27;20896;-60
2023/12/20 10:18:38;;;;;;;1.00;0.90;;;;;;;17.55;40.44;95197.41;5132311;27;20435;-60
2023/12/20 10:21:09;;;;;;;1.30;1.03;;;;;;;17.51;41.74;95189.16;5132844;27;20434;-60
2023/12/20 10:23:40;;;;;;;1.70;1.60;;;;;;;17.13;41.10;95170.22;5132297;27;20435;-60
2023/12/20 10:26:12;;;;;;;5.30;1.00;;;;;;;17.89;40.44;95164.38;5132579;27;20557;-61
2023/12/20 10:28:40;;;;;;;5.70;1.80;;;;;;;17.85;41.08;95174.19;5132805;27;20466;-60
2023/12/20 10:31:09;;;;;;;1.10;0.70;;;;;;;18.18;39.36;95161.81;5132486;27;20467;-61
2023/12/20 10:33:41;;;;;;;1.70;1.33;;;;;;;18.40;38.57;95153.53;5132394;27;20987;-60
2023/12/20 10:36:12;;;;;;;19.70;1.13;;;;;;;18.33;38.60;95139.81;5132477;27;20561;-60
2023/12/20 10:38:43;;;;;;;9.30;0.90;;;;;;;18.66;38.32;95134.66;5131665;27;20430;-60
2023/12/20 10:41:17;;;;;;;1.30;1.20;;;;;;;18.57;38.09;95123.94;5132520;27;20431;-60
2023/12/20 10:43:47;;;;;;;1.83;1.67;;;;;;;18.95;37.25;95126.56;5106714;27;21004;-60
2023/12/20 10:46:18;;;;;;;2.33;2.20;;;;;;;19.55;36.79;95116.19;5131964;27;20445;-60
2023/12/20 10:48:48;;;;;;;0.50;0.40;;;;;;;19.62;36.84;95118.31;5132023;27;20481;-59
2023/12/20 10:51:20;;;;;;;1.40;1.30;;;;;;;19.80;35.41;95108.97;5131585;27;20478;-60
2023/12/20 10:53:49;;;;;;;0.70;0.40;;;;;;;19.68;34.17;95078.56;5132531;27;20517;-59
2023/12/20 10:56:21;;;;;;;0.93;0.80;;;;;;;20.16;34.65;95076.00;5131690;27;20528;-59
2023/12/20 10:58:50;;;;;;;3.63;0.60;;;;;;;20.42;35.28;95075.66;5132014;27;20499;-59
2023/12/20 11:01:21;;;;;;;0.97;0.97;;;;;;;20.71;34.24;95084.31;5131934;28;20488;-59
2023/12/20 11:03:51;;;;;;;1.17;0.50;;;;;;;20.45;34.62;95075.00;5131770;27;20470;-59
2023/12/20 11:06:35;;;;;;;1.73;1.63;;;;;;;19.59;35.55;95082.13;5131728;28;20434;-59
2023/12/20 11:09:14;;;;;;;3.73;2.17;;;;;;;19.22;36.86;95066.97;5132005;28;20466;-59
2023/12/20 11:12:01;;;;;;;0.83;0.80;;;;;;;19.32;36.54;95071.13;5131889;28;20437;-59
2023/12/20 11:14:36;;;;;;;13.23;1.87;;;;;;;19.04;36.80;95065.53;5132490;27;20427;-60
2023/12/20 11:17:08;;;;;;;1.37;0.70;;;;;;;20.02;36.04;95056.66;5131771;27;20438;-60
2023/12/20 11:20:01;;;;;;;2.60;0.70;;;;;;;20.45;35.64;95040.00;5132436;28;20435;-60
2023/12/20 11:22:32;;;;;;;1.80;1.70;;;;;;;19.63;35.84;95061.53;5131330;28;20453;-59
2023/12/20 11:25:06;;;;;;;0.70;0.40;;;;;;;19.50;36.68;95056.47;5131444;28;20529;-60
2023/12/20 11:27:37;;;;;;;1.60;1.50;;;;;;;19.60;35.77;95043.38;5131795;28;20445;-61
2023/12/20 11:30:08;;;;;;;0.60;0.30;;;;;;;19.54;35.50;95036.63;5131340;27;20441;-59
2023/12/20 11:32:38;;;;;;;0.40;0.37;;;;;;;19.26;34.38;95034.81;5132289;28;20438;-60
2023/12/20 11:35:20;;;;;;;0.53;0.40;;;;;;;19.44;36.30;95030.91;5131731;28;20439;-61
2023/12/20 11:37:49;;;;;;;2.80;2.10;;;;;;;18.75;37.20;95031.44;5131697;28;20438;-60
2023/12/20 11:40:21;;;;;;;0.53;0.50;;;;;;;19.13;37.42;95017.09;5131541;28;20435;-61
2023/12/20 11:42:54;;;;;;;0.50;0.50;;;;;;;19.33;36.10;95018.94;5131887;27;20430;-60
2023/12/20 11:45:27;;;;;;;0.60;0.60;;;;;;;19.52;36.53;95012.00;5105694;28;20431;-61
2023/12/20 11:47:58;;;;;;;0.47;0.30;;;;;;;19.41;36.85;95013.53;5131390;28;20985;-60
2023/12/20 11:50:27;;;;;;;1.37;1.17;;;;;;;19.19;37.89;95007.72;5130987;27;20481;-60